createdAt,value
2022-12-25T00:00:28.632Z,16.83
2022-12-25T00:02:57.186Z,24.23
2022-12-25T00:05:25.980Z,18.80
2022-12-25T00:07:55.731Z,17.20
2022-12-25T00:10:24.124Z,18.33
2022-12-25T00:12:52.751Z,13.43
2022-12-25T00:15:21.218Z,19.13
2022-12-25T00:17:49.583Z,21.25
2022-12-25T00:20:18.067Z,13.25
2022-12-25T00:22:46.463Z,15.70
2022-12-25T00:25:16.204Z,16.83
2022-12-25T00:27:44.556Z,17.73
2022-12-25T00:30:13.342Z,13.75
2022-12-25T00:32:42.218Z,13.25
2022-12-25T00:35:10.922Z,17.23
2022-12-25T00:37:39.310Z,15.02
2022-12-25T00:40:08.364Z,14.60
2022-12-25T00:42:38.106Z,15.77
2022-12-25T00:45:06.909Z,12.65
2022-12-25T00:47:35.269Z,15.63
2022-12-25T00:50:03.653Z,13.45
2022-12-25T00:52:32.045Z,13.75
2022-12-25T00:55:00.430Z,15.38
2022-12-25T00:57:28.806Z,15.68
2022-12-25T00:59:58.602Z,11.23
2022-12-25T01:02:27.133Z,18.02
2022-12-25T01:04:56.556Z,10.88
2022-12-25T01:07:25.728Z,14.52
2022-12-25T01:10:11.890Z,12.43
2022-12-25T01:12:41.070Z,15.38
2022-12-25T01:15:12.358Z,13.75
2022-12-25T01:17:40.714Z,15.35
2022-12-25T01:20:09.871Z,14.88
2022-12-25T01:22:38.247Z,11.45
2022-12-25T01:25:07.202Z,13.00
2022-12-25T01:27:35.601Z,11.18
2022-12-25T01:30:04.027Z,12.43
2022-12-25T01:32:33.789Z,11.70
2022-12-25T01:35:02.178Z,10.43
2022-12-25T01:37:30.527Z,12.88
2022-12-25T01:39:58.899Z,12.68
2022-12-25T01:42:27.251Z,13.25
2022-12-25T01:45:16.470Z,13.80
2022-12-25T01:47:46.191Z,10.43
2022-12-25T01:50:14.586Z,15.48
2022-12-25T01:52:43.352Z,12.35
2022-12-25T01:55:11.922Z,9.68
2022-12-25T01:57:41.194Z,13.00
2022-12-25T02:00:10.352Z,9.73
2022-12-25T02:02:39.155Z,10.45
2022-12-25T02:05:11.702Z,9.25
2022-12-25T02:07:41.715Z,10.38
2022-12-25T02:10:10.532Z,8.90
2022-12-25T02:12:39.309Z,9.90
2022-12-25T02:15:10.009Z,10.32
2022-12-25T02:17:42.470Z,11.15
2022-12-25T02:20:18.670Z,10.38
2022-12-25T02:22:52.758Z,7.72
2022-12-25T02:25:31.677Z,10.05
2022-12-25T02:28:09.080Z,9.48
2022-12-25T02:30:38.776Z,10.57
2022-12-25T02:33:26.563Z,12.10
2022-12-25T02:35:56.619Z,10.30
2022-12-25T02:38:27.136Z,10.23
2022-12-25T02:40:57.586Z,9.60
2022-12-25T02:43:48.305Z,8.98
2022-12-25T02:46:36.105Z,8.93
2022-12-25T02:49:24.827Z,11.93
2022-12-25T02:52:13.953Z,6.97
2022-12-25T02:55:03.496Z,10.45
2022-12-25T02:57:51.886Z,6.32
2022-12-25T03:00:39.358Z,6.20
2022-12-25T03:03:28.222Z,9.55
2022-12-25T03:06:16.662Z,12.95
2022-12-25T03:08:46.928Z,10.50
2022-12-25T03:11:32.784Z,10.02
2022-12-25T03:14:17.191Z,7.75
2022-12-25T03:16:54.243Z,8.65
2022-12-25T03:19:41.491Z,5.85
2022-12-25T03:22:29.629Z,8.00
2022-12-25T03:25:15.490Z,6.50
2022-12-25T03:27:45.879Z,9.25
2022-12-25T03:30:32.192Z,6.25
2022-12-25T03:33:17.941Z,9.05
2022-12-25T03:36:03.222Z,6.80
2022-12-25T03:38:51.847Z,8.20
2022-12-25T03:41:41.875Z,9.75
2022-12-25T03:44:32.047Z,9.13
2022-12-25T03:47:22.595Z,10.18
2022-12-25T03:50:12.552Z,8.38
2022-12-25T03:52:59.711Z,5.60
2022-12-25T03:55:54.567Z,7.82
2022-12-25T03:58:41.340Z,6.13
2022-12-25T04:01:27.668Z,10.77
2022-12-25T04:04:19.162Z,7.55
2022-12-25T04:07:06.687Z,8.70
2022-12-25T04:09:52.756Z,12.98
2022-12-25T04:12:38.002Z,5.15
2022-12-25T04:15:24.196Z,5.65
2022-12-25T04:18:07.733Z,9.40
2022-12-25T04:20:53.711Z,10.80
2022-12-25T04:23:41.014Z,10.50
2022-12-25T04:26:26.849Z,7.07
2022-12-25T04:29:13.019Z,5.90
2022-12-25T04:31:59.642Z,11.93
2022-12-25T04:34:45.720Z,8.00
2022-12-25T04:37:14.090Z,7.93
2022-12-25T04:39:43.822Z,6.60
2022-12-25T04:42:12.225Z,11.05
2022-12-25T04:44:40.884Z,8.18
2022-12-25T04:47:11.556Z,6.28
2022-12-25T04:49:40.378Z,9.90
2022-12-25T04:52:08.762Z,6.53
2022-12-25T04:54:37.196Z,5.28
2022-12-25T04:57:07.023Z,5.55
2022-12-25T04:59:35.395Z,9.68
2022-12-25T05:02:04.041Z,8.40
2022-12-25T05:04:32.608Z,7.85
2022-12-25T05:07:01.136Z,5.25
2022-12-25T05:09:29.613Z,7.13
2022-12-25T05:11:58.051Z,7.05
2022-12-25T05:14:27.815Z,7.47
2022-12-25T05:16:56.184Z,7.63
2022-12-25T05:19:24.540Z,6.68
2022-12-25T05:21:52.924Z,12.15
2022-12-25T05:24:21.312Z,8.65
2022-12-25T05:26:49.681Z,5.78
2022-12-25T05:29:18.067Z,12.02
2022-12-25T05:31:47.885Z,5.63
2022-12-25T05:34:16.251Z,9.00
2022-12-25T05:36:44.681Z,5.35
2022-12-25T05:39:13.135Z,6.68
2022-12-25T05:41:42.181Z,8.15
2022-12-25T05:44:10.556Z,9.18
2022-12-25T05:46:39.099Z,7.90
2022-12-25T05:49:08.889Z,5.88
2022-12-25T05:51:37.286Z,4.35
2022-12-25T05:54:05.894Z,10.45
2022-12-25T05:56:34.413Z,5.30
2022-12-25T05:59:02.827Z,8.23
2022-12-25T06:01:31.385Z,6.60
2022-12-25T06:04:00.081Z,5.78
2022-12-25T06:06:29.981Z,7.85
2022-12-25T06:08:58.369Z,6.93
2022-12-25T06:11:26.819Z,7.03
2022-12-25T06:13:55.748Z,6.53
2022-12-25T06:16:24.183Z,9.05
2022-12-25T06:18:53.164Z,7.88
2022-12-25T06:21:21.898Z,8.73
2022-12-25T06:23:51.914Z,6.28
2022-12-25T06:26:21.425Z,6.85
2022-12-25T06:28:49.851Z,7.90
2022-12-25T06:31:20.201Z,10.52
2022-12-25T06:33:48.717Z,5.25
2022-12-25T06:36:18.071Z,7.22
2022-12-25T06:38:46.532Z,9.02
2022-12-25T06:41:17.252Z,6.85
2022-12-25T06:43:45.898Z,7.70
2022-12-25T06:46:14.337Z,7.45
2022-12-25T06:48:47.908Z,7.15
2022-12-25T06:51:16.498Z,6.55
2022-12-25T06:53:45.027Z,8.38
2022-12-25T06:56:15.664Z,7.20
2022-12-25T06:58:46.541Z,6.43
2022-12-25T07:01:17.748Z,6.88
2022-12-25T07:03:47.463Z,8.60
2022-12-25T07:06:16.238Z,5.88
2022-12-25T07:08:44.655Z,6.82
2022-12-25T07:11:13.161Z,6.07
2022-12-25T07:13:41.609Z,6.68
2022-12-25T07:16:12.291Z,7.28
2022-12-25T07:18:41.107Z,11.10
2022-12-25T07:21:10.197Z,7.68
2022-12-25T07:23:38.598Z,10.02
2022-12-25T07:26:07.523Z,5.32
2022-12-25T07:28:36.036Z,4.22
2022-12-25T07:31:05.087Z,5.93
2022-12-25T07:33:35.141Z,4.13
2022-12-25T07:36:03.902Z,5.55
2022-12-25T07:38:32.251Z,6.78
2022-12-25T07:41:00.714Z,8.50
2022-12-25T07:43:29.200Z,4.78
2022-12-25T07:45:58.758Z,6.45
2022-12-25T07:48:27.606Z,6.80
2022-12-25T07:51:01.712Z,6.25
2022-12-25T07:53:30.082Z,7.55
2022-12-25T07:55:59.226Z,4.68
2022-12-25T07:58:27.744Z,4.95
2022-12-25T08:00:56.370Z,6.32
2022-12-25T08:03:25.027Z,6.15
2022-12-25T08:05:53.573Z,4.18
2022-12-25T08:08:23.396Z,5.38
2022-12-25T08:10:51.990Z,5.38
2022-12-25T08:13:20.343Z,3.42
2022-12-25T08:15:48.791Z,7.90
2022-12-25T08:18:17.157Z,5.20
2022-12-25T08:20:45.555Z,6.60
2022-12-25T08:23:13.913Z,5.50
2022-12-25T08:25:43.709Z,6.32
2022-12-25T08:28:12.199Z,7.35
2022-12-25T08:30:40.877Z,3.67
2022-12-25T08:33:09.319Z,6.05
2022-12-25T08:35:37.982Z,7.93
2022-12-25T08:38:06.337Z,5.05
2022-12-25T08:40:34.710Z,10.98
2022-12-25T08:43:04.522Z,8.32
2022-12-25T08:45:35.156Z,6.80
2022-12-25T08:48:03.898Z,5.45
2022-12-25T08:50:32.278Z,4.50
2022-12-25T08:53:00.833Z,6.28
2022-12-25T08:55:29.495Z,6.70
2022-12-25T08:57:57.851Z,4.63
2022-12-25T09:00:27.657Z,6.15
2022-12-25T09:02:56.232Z,7.00
2022-12-25T09:05:24.883Z,4.95
2022-12-25T09:07:53.265Z,7.90
2022-12-25T09:10:21.705Z,6.00
2022-12-25T09:12:50.059Z,6.03
2022-12-25T09:15:18.535Z,5.78
2022-12-25T09:17:48.392Z,6.63
2022-12-25T09:20:16.817Z,5.90
2022-12-25T09:22:45.205Z,6.57
2022-12-25T09:25:13.874Z,9.35
2022-12-25T09:27:43.756Z,5.93
2022-12-25T09:30:12.587Z,6.28
2022-12-25T09:32:41.413Z,6.78
2022-12-25T09:35:11.580Z,9.18
2022-12-25T09:37:40.246Z,7.80
2022-12-25T09:40:09.421Z,5.07
2022-12-25T09:42:37.995Z,6.05
2022-12-25T09:45:07.399Z,6.35
2022-12-25T09:47:38.472Z,8.35
2022-12-25T09:50:09.629Z,11.30
2022-12-25T09:52:44.242Z,7.65
2022-12-25T09:55:19.667Z,7.68
2022-12-25T09:57:51.392Z,9.57
2022-12-25T10:00:21.409Z,5.40
2022-12-25T10:03:07.200Z,5.43
2022-12-25T10:05:41.608Z,7.72
2022-12-25T10:08:16.225Z,7.55
2022-12-25T10:10:50.031Z,8.45
2022-12-25T10:13:24.835Z,7.05
2022-12-25T10:15:56.518Z,8.90
2022-12-25T10:18:37.268Z,10.43
2022-12-25T10:21:12.819Z,7.45
2022-12-25T10:23:45.286Z,7.85
2022-12-25T10:26:16.733Z,6.38
2022-12-25T10:28:46.777Z,10.18
2022-12-25T10:31:21.386Z,9.13
2022-12-25T10:33:50.685Z,8.90
2022-12-25T10:36:22.008Z,9.15
2022-12-25T10:38:52.039Z,12.05
2022-12-25T10:41:25.704Z,8.48
2022-12-25T10:43:55.297Z,8.13
2022-12-25T10:46:24.721Z,8.93
2022-12-25T10:48:54.661Z,9.68
2022-12-25T10:51:30.804Z,7.78
2022-12-25T10:54:00.901Z,6.28
2022-12-25T10:56:29.307Z,9.88
2022-12-25T10:59:06.132Z,10.18
2022-12-25T11:01:34.798Z,9.43
2022-12-25T11:04:03.539Z,9.30
2022-12-25T11:06:34.600Z,7.55
2022-12-25T11:09:04.625Z,7.45
2022-12-25T11:11:33.635Z,8.25
2022-12-25T11:14:03.502Z,9.25
2022-12-25T11:16:32.999Z,8.27
2022-12-25T11:19:05.141Z,11.10
2022-12-25T11:21:34.575Z,9.85
2022-12-25T11:24:05.251Z,7.88
2022-12-25T11:26:37.597Z,12.18
2022-12-25T11:29:24.248Z,8.13
2022-12-25T11:31:53.047Z,8.10
2022-12-25T11:34:26.863Z,9.27
2022-12-25T11:36:56.471Z,10.73
2022-12-25T11:39:29.038Z,6.80
2022-12-25T11:41:59.213Z,9.32
2022-12-25T11:44:29.246Z,7.97
2022-12-25T11:46:57.794Z,7.03
2022-12-25T11:49:26.279Z,11.52
2022-12-25T11:51:57.391Z,10.82
2022-12-25T11:54:28.396Z,11.82
2022-12-25T11:56:59.255Z,11.88
2022-12-25T11:59:29.823Z,24.08
2022-12-25T12:02:00.781Z,24.63
2022-12-25T12:04:35.199Z,15.30
2022-12-25T12:07:10.668Z,9.60
2022-12-25T12:09:46.201Z,9.80
2022-12-25T12:12:18.815Z,9.05
2022-12-25T12:14:50.870Z,9.38
2022-12-25T12:17:20.028Z,8.30
2022-12-25T12:19:48.565Z,8.50
2022-12-25T12:22:19.835Z,10.10
2022-12-25T12:24:51.419Z,7.82
2022-12-25T12:27:23.780Z,9.55
2022-12-25T12:29:53.647Z,6.63
2022-12-25T12:32:27.334Z,8.32
2022-12-25T12:34:56.007Z,10.68
2022-12-25T12:37:27.760Z,8.32
2022-12-25T12:39:57.744Z,10.88
2022-12-25T12:42:27.554Z,9.70
2022-12-25T12:44:57.522Z,11.70
2022-12-25T12:47:34.101Z,11.35
2022-12-25T12:50:03.462Z,13.23
2022-12-25T12:52:35.721Z,10.80
2022-12-25T12:55:06.837Z,9.90
2022-12-25T12:57:39.785Z,9.10
2022-12-25T13:00:11.027Z,8.10
2022-12-25T13:03:00.486Z,8.05
2022-12-25T13:05:35.105Z,11.65
2022-12-25T13:08:06.652Z,9.38
2022-12-25T13:10:37.568Z,8.15
2022-12-25T13:13:08.200Z,10.05
2022-12-25T13:15:37.411Z,8.85
2022-12-25T13:18:07.931Z,8.50
2022-12-25T13:20:41.606Z,8.30
2022-12-25T13:23:26.304Z,9.18
2022-12-25T13:25:56.526Z,8.48
2022-12-25T13:28:29.079Z,8.18
2022-12-25T13:31:03.502Z,7.90
2022-12-25T13:33:31.961Z,8.40
2022-12-25T13:36:00.435Z,12.90
2022-12-25T13:38:30.005Z,7.20
2022-12-25T13:41:17.740Z,11.02
2022-12-25T13:43:46.791Z,7.03
2022-12-25T13:46:16.006Z,7.70
2022-12-25T13:48:44.827Z,8.25
2022-12-25T13:51:16.986Z,9.20
2022-12-25T13:53:45.939Z,9.43
2022-12-25T13:56:17.166Z,8.32
2022-12-25T13:58:47.168Z,7.95
2022-12-25T14:01:18.645Z,7.18
2022-12-25T14:03:48.396Z,6.97
2022-12-25T14:06:19.008Z,8.85
2022-12-25T14:08:48.174Z,8.70
2022-12-25T14:11:20.501Z,9.52
2022-12-25T14:13:50.341Z,8.20
2022-12-25T14:16:19.845Z,7.53
2022-12-25T14:18:55.102Z,7.63
2022-12-25T14:21:25.912Z,8.35
2022-12-25T14:23:54.373Z,7.00
2022-12-25T14:26:25.017Z,9.38
2022-12-25T14:28:54.827Z,10.30
2022-12-25T14:31:23.999Z,8.18
2022-12-25T14:33:54.183Z,9.13
2022-12-25T14:36:23.053Z,8.40
2022-12-25T14:38:57.675Z,10.02
2022-12-25T14:41:37.990Z,11.18
2022-12-25T14:44:07.835Z,12.00
2022-12-25T14:46:36.413Z,12.50
2022-12-25T14:49:06.763Z,13.95
2022-12-25T14:51:37.068Z,14.65
2022-12-25T14:54:06.792Z,10.65
2022-12-25T14:56:39.333Z,13.45
2022-12-25T14:59:10.107Z,11.73
2022-12-25T15:01:40.891Z,14.05
2022-12-25T15:04:13.962Z,14.15
2022-12-25T15:06:43.519Z,15.65
2022-12-25T15:09:15.893Z,12.10
2022-12-25T15:11:48.968Z,19.05
2022-12-25T15:14:17.465Z,16.15
2022-12-25T15:16:47.582Z,18.30
2022-12-25T15:19:25.222Z,15.70
2022-12-25T15:21:54.979Z,16.08
2022-12-25T15:24:23.444Z,14.35
2022-12-25T15:26:55.291Z,14.30
2022-12-25T15:29:59.587Z,16.85
2022-12-25T15:32:16.312Z,15.20
2022-12-25T15:34:46.208Z,16.67
2022-12-25T15:37:15.040Z,15.50
2022-12-25T15:39:43.535Z,14.07
2022-12-25T15:42:14.650Z,14.70
2022-12-25T15:44:43.914Z,14.65
2022-12-25T15:47:12.962Z,19.70
2022-12-25T15:49:41.353Z,16.55
2022-12-25T15:52:10.597Z,15.27
2022-12-25T15:54:38.977Z,16.10
2022-12-25T15:57:08.336Z,15.05
2022-12-25T15:59:38.061Z,16.02
2022-12-25T16:02:11.927Z,16.45
2022-12-25T16:04:42.424Z,15.77
2022-12-25T16:07:12.749Z,13.85
2022-12-25T16:09:41.103Z,15.63
2022-12-25T16:12:09.605Z,12.02
2022-12-25T16:14:39.400Z,18.73
2022-12-25T16:17:07.882Z,12.73
2022-12-25T16:19:36.213Z,14.23
2022-12-25T16:22:12.199Z,14.90
2022-12-25T16:24:40.648Z,13.45
2022-12-25T16:27:09.167Z,13.02
2022-12-25T16:29:38.897Z,11.57
2022-12-25T16:32:07.316Z,12.55
2022-12-25T16:34:35.700Z,12.18
2022-12-25T16:37:04.085Z,15.27
2022-12-25T16:39:32.431Z,13.88
2022-12-25T16:42:00.832Z,13.35
2022-12-25T16:44:29.385Z,13.07
2022-12-25T16:46:59.290Z,13.15
2022-12-25T16:49:27.702Z,13.57
2022-12-25T16:51:56.243Z,14.55
2022-12-25T16:54:24.609Z,15.73
2022-12-25T16:56:52.989Z,12.45
2022-12-25T16:59:21.376Z,14.40
2022-12-25T17:01:49.874Z,13.13
2022-12-25T17:04:19.845Z,16.42
2022-12-25T17:06:48.271Z,14.45
2022-12-25T17:09:16.821Z,14.50
2022-12-25T17:11:45.256Z,12.45
2022-12-25T17:14:13.624Z,12.35
2022-12-25T17:16:42.124Z,13.77
2022-12-25T17:19:15.908Z,14.20
2022-12-25T17:21:45.865Z,12.45
2022-12-25T17:24:14.288Z,13.48
2022-12-25T17:26:43.925Z,14.77
2022-12-25T17:29:17.090Z,13.10
2022-12-25T17:31:48.527Z,12.70
2022-12-25T17:34:17.021Z,12.02
2022-12-25T17:36:47.316Z,12.75
2022-12-25T17:39:15.776Z,12.38
2022-12-25T17:41:44.183Z,13.07
2022-12-25T17:44:12.644Z,14.73
2022-12-25T17:46:41.729Z,14.63
2022-12-25T17:49:15.267Z,13.90
2022-12-25T17:51:43.831Z,14.00
2022-12-25T17:54:13.800Z,14.23
2022-12-25T17:56:42.196Z,13.65
2022-12-25T17:59:18.124Z,12.90
2022-12-25T18:01:48.188Z,11.80
2022-12-25T18:04:16.797Z,12.75
2022-12-25T18:06:45.539Z,13.13
2022-12-25T18:09:15.311Z,13.15
2022-12-25T18:11:44.623Z,12.27
2022-12-25T18:14:13.939Z,14.38
2022-12-25T18:16:43.603Z,10.25
2022-12-25T18:19:12.279Z,12.95
2022-12-25T18:21:40.695Z,11.50
2022-12-25T18:24:09.924Z,12.68
2022-12-25T18:26:39.806Z,11.32
2022-12-25T18:29:08.379Z,12.80
2022-12-25T18:31:37.159Z,11.15
2022-12-25T18:34:05.785Z,12.10
2022-12-25T18:36:34.267Z,12.40
2022-12-25T18:39:02.633Z,9.55
2022-12-25T18:41:31.289Z,10.18
2022-12-25T18:44:02.527Z,8.98
2022-12-25T18:46:31.149Z,10.48
2022-12-25T18:48:59.844Z,12.43
2022-12-25T18:51:34.978Z,9.75
2022-12-25T18:54:05.563Z,9.13
2022-12-25T18:56:34.359Z,14.13
2022-12-25T18:59:04.108Z,12.35
2022-12-25T19:01:32.816Z,13.80
2022-12-25T19:04:05.099Z,12.27
2022-12-25T19:06:34.285Z,13.00
2022-12-25T19:09:08.610Z,10.98
2022-12-25T19:11:40.441Z,11.10
2022-12-25T19:14:16.061Z,10.80
2022-12-25T19:16:44.553Z,10.50
2022-12-25T19:19:13.088Z,12.98
2022-12-25T19:21:41.507Z,11.35
2022-12-25T19:24:09.898Z,10.68
2022-12-25T19:26:38.414Z,12.05
2022-12-25T19:29:06.834Z,11.43
2022-12-25T19:31:38.187Z,10.55
2022-12-25T19:34:06.759Z,12.23
2022-12-25T19:36:35.276Z,13.15
2022-12-25T19:39:03.721Z,14.90
2022-12-25T19:41:32.363Z,13.70
2022-12-25T19:44:00.760Z,15.38
2022-12-25T19:46:30.074Z,11.43
2022-12-25T19:49:04.229Z,13.85
2022-12-25T19:51:33.620Z,14.63
2022-12-25T19:54:02.010Z,13.55
2022-12-25T19:56:30.805Z,14.90
2022-12-25T19:58:59.273Z,14.77
2022-12-25T20:01:28.525Z,12.52
2022-12-25T20:03:57.022Z,12.65
2022-12-25T20:06:29.034Z,14.38
2022-12-25T20:08:58.879Z,12.75
2022-12-25T20:11:29.136Z,14.32
2022-12-25T20:13:57.892Z,16.92
2022-12-25T20:16:26.860Z,15.23
2022-12-25T20:18:56.550Z,16.73
2022-12-25T20:21:27.174Z,16.20
2022-12-25T20:23:57.074Z,16.20
2022-12-25T20:26:26.431Z,15.73
2022-12-25T20:28:54.841Z,17.38
2022-12-25T20:31:27.308Z,17.83
2022-12-25T20:33:56.370Z,14.77
2022-12-25T20:36:26.568Z,15.50
2022-12-25T20:38:58.473Z,17.30
2022-12-25T20:41:28.853Z,15.02
2022-12-25T20:43:58.564Z,14.50
2022-12-25T20:46:27.144Z,13.75
2022-12-25T20:48:55.733Z,16.50
2022-12-25T20:51:26.004Z,14.10
2022-12-25T20:53:54.692Z,13.98
2022-12-25T20:56:25.707Z,16.25
2022-12-25T20:58:57.938Z,12.73
2022-12-25T21:01:26.775Z,16.05
2022-12-25T21:03:55.626Z,15.63
2022-12-25T21:06:24.349Z,14.50
2022-12-25T21:08:52.720Z,13.13
2022-12-25T21:11:21.504Z,13.98
2022-12-25T21:13:51.463Z,14.00
2022-12-25T21:16:21.699Z,11.48
2022-12-25T21:18:50.944Z,13.85
2022-12-25T21:21:19.426Z,11.82
2022-12-25T21:23:48.152Z,13.57
2022-12-25T21:26:18.509Z,11.18
2022-12-25T21:28:47.091Z,14.10
2022-12-25T21:31:17.170Z,12.65
2022-12-25T21:33:54.579Z,13.48
2022-12-25T21:36:24.623Z,12.68
2022-12-25T21:38:57.147Z,13.77
2022-12-25T21:41:25.702Z,10.35
2022-12-25T21:43:54.072Z,13.88
2022-12-25T21:46:23.917Z,10.10
2022-12-25T21:48:52.359Z,14.93
2022-12-25T21:51:39.344Z,16.10
2022-12-25T21:54:08.298Z,15.77
2022-12-25T21:56:43.516Z,13.95
2022-12-25T21:59:13.934Z,12.70
2022-12-25T22:01:44.334Z,13.27
2022-12-25T22:04:13.140Z,14.13
2022-12-25T22:06:59.069Z,18.15
2022-12-25T22:09:27.621Z,16.13
2022-12-25T22:12:13.648Z,19.25
2022-12-25T22:14:57.954Z,15.10
2022-12-25T22:17:46.199Z,14.57
2022-12-25T22:20:15.950Z,15.30
2022-12-25T22:22:44.687Z,15.52
2022-12-25T22:25:13.720Z,16.02
2022-12-25T22:27:43.197Z,14.50
2022-12-25T22:30:12.664Z,14.75
2022-12-25T22:32:42.605Z,11.50
2022-12-25T22:35:12.369Z,13.27
2022-12-25T22:37:41.219Z,10.52
2022-12-25T22:40:10.203Z,8.77
2022-12-25T22:42:38.917Z,12.50
2022-12-25T22:45:07.643Z,12.10
2022-12-25T22:47:36.175Z,9.88
2022-12-25T22:50:06.152Z,10.25
2022-12-25T22:52:34.538Z,8.73
2022-12-25T22:55:03.059Z,9.40
2022-12-25T22:57:31.435Z,6.47
2022-12-25T22:59:59.955Z,7.00
2022-12-25T23:02:28.588Z,8.60
2022-12-25T23:04:57.089Z,7.18
2022-12-25T23:07:26.907Z,6.00
2022-12-25T23:09:55.289Z,6.22
2022-12-25T23:12:41.437Z,6.57
2022-12-25T23:15:10.311Z,5.32
2022-12-25T23:17:56.671Z,4.50
2022-12-25T23:20:42.382Z,5.93
2022-12-25T23:23:32.606Z,4.75
2022-12-25T23:26:10.581Z,5.07
2022-12-25T23:28:57.456Z,6.60
2022-12-25T23:31:27.968Z,5.10
2022-12-25T23:33:56.488Z,5.13
2022-12-25T23:36:25.116Z,4.35
2022-12-25T23:38:54.892Z,5.80
2022-12-25T23:41:23.515Z,4.97
2022-12-25T23:43:52.132Z,4.45
2022-12-25T23:46:20.942Z,7.03
2022-12-25T23:48:49.815Z,4.90
2022-12-25T23:51:18.240Z,4.80
2022-12-25T23:53:46.611Z,6.47
2022-12-25T23:56:16.473Z,4.45
2022-12-25T23:58:51.331Z,4.88
